Search for airport 
image banner adimage banner adimage banner ad
image banner ad

15PA - Cavage Personal Use Airport

Located in Prompton, United States

ICAO - 15PA, IATA -

Data provided by Airmate  

General information

Coordinates: N40°27'10" W79°46'30"
Elevation is 1187 feet MSL.
Magnetic variation is -08° East
View others Airports in Pennsylvania

Operational data

Special qualification required
Current time UTC:
Current local time:
Weather at : KAGC - Allegheny County ( 17 km )
METAR: KAGC 091353Z 09007KT 3SM RA BR OVC050 05/04 A2998 RMK AO2 PRESFR SLP163 P0014 T00500039
TAF: KAGC 091120Z 0912/1012 16005KT P6SM -RA OVC040 FM091400 12007KT 4SM -RA OVC030 FM091600 09008KT 3SM RA OVC007 FM092300 01005KT 4SM -SHRA OVC009 FM100500 35006KT 5SM BR OVC004 FM101000 32006KT P6SM BKN010
View NOTAMs / SUP AIP / TFR affecting this airport [VIEW]
Communications frequencies: [VIEW]

Runways:

RWY identifierQFULength (ft)Width (ft)SurfaceLDA (ft)
0540°228028ASPH
23220°228028ASPH

Airport contact information

Address: Prompton United States

Satellite view of 15PA